sensor_id;sensor_type;location;lat;lon;timestamp;pressure;altitude;pressure_sealevel;temperature;humidity
33953;BME280;20231;42.710;23.280;2023-02-15T00:01:46;96149.75;;;5.32;62.69
33953;BME280;20231;42.710;23.280;2023-02-15T00:04:19;96158.72;;;5.61;62.42
33953;BME280;20231;42.710;23.280;2023-02-15T00:06:44;96145.09;;;5.52;62.37
33953;BME280;20231;42.710;23.280;2023-02-15T00:09:11;96169.59;;;5.75;62.14
33953;BME280;20231;42.710;23.280;2023-02-15T00:11:36;96165.78;;;5.78;61.56
33953;BME280;20231;42.710;23.280;2023-02-15T00:16:34;96165.81;;;5.71;61.94
33953;BME280;20231;42.710;23.280;2023-02-15T00:19:00;96182.88;;;5.80;61.75
33953;BME280;20231;42.710;23.280;2023-02-15T00:21:30;96178.09;;;5.53;62.00
33953;BME280;20231;42.710;23.280;2023-02-15T00:23:58;96182.50;;;5.77;61.56
33953;BME280;20231;42.710;23.280;2023-02-15T00:26:24;96164.88;;;5.66;61.57
33953;BME280;20231;42.710;23.280;2023-02-15T00:28:49;96173.47;;;5.73;61.45
33953;BME280;20231;42.710;23.280;2023-02-15T00:31:15;96171.22;;;5.76;61.70
33953;BME280;20231;42.710;23.280;2023-02-15T00:33:40;96165.75;;;5.60;61.56
33953;BME280;20231;42.710;23.280;2023-02-15T00:36:07;96185.59;;;5.67;61.70
33953;BME280;20231;42.710;23.280;2023-02-15T00:38:34;96170.34;;;5.64;61.82
33953;BME280;20231;42.710;23.280;2023-02-15T00:41:02;96175.78;;;5.63;61.71
33953;BME280;20231;42.710;23.280;2023-02-15T00:43:29;96176.34;;;5.65;61.94
33953;BME280;20231;42.710;23.280;2023-02-15T00:45:55;96163.41;;;5.52;61.55
33953;BME280;20231;42.710;23.280;2023-02-15T00:48:21;96177.44;;;5.58;62.46
33953;BME280;20231;42.710;23.280;2023-02-15T00:50:56;96176.94;;;5.67;61.77
33953;BME280;20231;42.710;23.280;2023-02-15T00:53:22;96167.06;;;5.69;61.53
33953;BME280;20231;42.710;23.280;2023-02-15T00:55:48;96173.44;;;5.79;61.60
33953;BME280;20231;42.710;23.280;2023-02-15T00:58:14;96173.22;;;5.74;61.43
33953;BME280;20231;42.710;23.280;2023-02-15T01:00:41;96172.34;;;5.63;61.50
33953;BME280;20231;42.710;23.280;2023-02-15T01:03:07;96180.94;;;5.69;61.48
33953;BME280;20231;42.710;23.280;2023-02-15T01:05:33;96180.28;;;5.74;61.43
33953;BME280;20231;42.710;23.280;2023-02-15T01:07:59;96159.88;;;5.64;61.29
33953;BME280;20231;42.710;23.280;2023-02-15T01:10:25;96177.63;;;5.80;61.23
33953;BME280;20231;42.710;23.280;2023-02-15T01:12:52;96166.78;;;5.77;61.09
33953;BME280;20231;42.710;23.280;2023-02-15T01:15:18;96170.72;;;5.86;60.86
33953;BME280;20231;42.710;23.280;2023-02-15T01:17:43;96153.50;;;5.78;60.42
33953;BME280;20231;42.710;23.280;2023-02-15T01:20:11;96161.38;;;5.72;60.74
33953;BME280;20231;42.710;23.280;2023-02-15T01:22:37;96168.44;;;5.71;60.74
33953;BME280;20231;42.710;23.280;2023-02-15T01:25:03;96152.66;;;5.60;60.88
33953;BME280;20231;42.710;23.280;2023-02-15T01:27:28;96165.09;;;5.64;61.09
33953;BME280;20231;42.710;23.280;2023-02-15T01:29:56;96173.09;;;5.69;61.45
33953;BME280;20231;42.710;23.280;2023-02-15T01:32:21;96163.22;;;5.71;61.03
33953;BME280;20231;42.710;23.280;2023-02-15T01:34:46;96154.53;;;5.71;61.02
33953;BME280;20231;42.710;23.280;2023-02-15T01:37:12;96154.34;;;5.72;60.99
33953;BME280;20231;42.710;23.280;2023-02-15T01:39:37;96159.97;;;5.76;60.90
33953;BME280;20231;42.710;23.280;2023-02-15T01:42:03;96165.53;;;5.62;61.13
33953;BME280;20231;42.710;23.280;2023-02-15T01:44:51;96158.72;;;5.78;60.99
33953;BME280;20231;42.710;23.280;2023-02-15T01:47:44;96162.97;;;5.79;61.10
33953;BME280;20231;42.710;23.280;2023-02-15T01:50:28;96160.38;;;5.73;61.21
33953;BME280;20231;42.710;23.280;2023-02-15T01:52:58;96144.06;;;5.53;61.41
33953;BME280;20231;42.710;23.280;2023-02-15T01:55:31;96137.47;;;5.51;61.63
33953;BME280;20231;42.710;23.280;2023-02-15T01:57:58;96135.56;;;5.58;61.40
33953;BME280;20231;42.710;23.280;2023-02-15T02:00:24;96145.91;;;5.53;61.66
33953;BME280;20231;42.710;23.280;2023-02-15T02:02:51;96127.13;;;5.56;61.73
33953;BME280;20231;42.710;23.280;2023-02-15T02:05:18;96133.31;;;5.61;61.51
33953;BME280;20231;42.710;23.280;2023-02-15T02:07:45;96146.53;;;5.66;61.52
33953;BME280;20231;42.710;23.280;2023-02-15T02:10:15;96126.34;;;5.55;61.54
33953;BME280;20231;42.710;23.280;2023-02-15T02:12:42;96134.78;;;5.57;61.87
33953;BME280;20231;42.710;23.280;2023-02-15T02:15:09;96132.16;;;5.57;61.75
33953;BME280;20231;42.710;23.280;2023-02-15T02:26:17;96155.78;;;5.68;61.47
33953;BME280;20231;42.710;23.280;2023-02-15T02:32:12;96157.75;;;5.73;61.52
33953;BME280;20231;42.710;23.280;2023-02-15T02:34:50;96140.56;;;5.59;61.96
33953;BME280;20231;42.710;23.280;2023-02-15T02:37:27;96153.84;;;5.64;61.81
33953;BME280;20231;42.710;23.280;2023-02-15T02:40:11;96145.03;;;5.59;61.92
33953;BME280;20231;42.710;23.280;2023-02-15T02:42:41;96155.34;;;5.71;61.88
33953;BME280;20231;42.710;23.280;2023-02-15T02:45:50;96156.22;;;5.65;62.00
33953;BME280;20231;42.710;23.280;2023-02-15T02:48:22;96151.56;;;5.67;61.79
33953;BME280;20231;42.710;23.280;2023-02-15T02:50:49;96154.63;;;5.64;61.78
33953;BME280;20231;42.710;23.280;2023-02-15T02:53:15;96152.44;;;5.62;62.02
33953;BME280;20231;42.710;23.280;2023-02-15T02:58:44;96165.59;;;5.55;62.43
33953;BME280;20231;42.710;23.280;2023-02-15T03:01:19;96157.47;;;5.63;62.63
33953;BME280;20231;42.710;23.280;2023-02-15T03:03:52;96160.50;;;5.60;62.43
33953;BME280;20231;42.710;23.280;2023-02-15T03:09:26;96172.81;;;5.60;62.63
33953;BME280;20231;42.710;23.280;2023-02-15T03:12:00;96171.72;;;5.67;62.78
33953;BME280;20231;42.710;23.280;2023-02-15T03:14:27;96167.25;;;5.67;62.63
33953;BME280;20231;42.710;23.280;2023-02-15T03:16:54;96173.22;;;5.57;62.84
33953;BME280;20231;42.710;23.280;2023-02-15T03:19:29;96172.72;;;5.66;62.82
33953;BME280;20231;42.710;23.280;2023-02-15T03:22:00;96161.88;;;5.63;63.15
33953;BME280;20231;42.710;23.280;2023-02-15T03:24:39;96185.09;;;5.59;63.32
33953;BME280;20231;42.710;23.280;2023-02-15T03:27:14;96162.84;;;5.68;63.05
33953;BME280;20231;42.710;23.280;2023-02-15T03:29:44;96164.22;;;5.70;63.07
33953;BME280;20231;42.710;23.280;2023-02-15T03:32:12;96168.19;;;5.79;62.84
33953;BME280;20231;42.710;23.280;2023-02-15T03:34:39;96174.94;;;5.87;62.90
33953;BME280;20231;42.710;23.280;2023-02-15T03:37:19;96171.66;;;5.73;62.90
33953;BME280;20231;42.710;23.280;2023-02-15T03:39:54;96183.22;;;5.84;63.10
33953;BME280;20231;42.710;23.280;2023-02-15T03:42:32;96175.94;;;5.68;63.05
33953;BME280;20231;42.710;23.280;2023-02-15T03:45:09;96166.19;;;5.39;64.31
33953;BME280;20231;42.710;23.280;2023-02-15T03:47:39;96174.03;;;5.57;64.07
33953;BME280;20231;42.710;23.280;2023-02-15T03:50:19;96168.00;;;5.57;63.76
33953;BME280;20231;42.710;23.280;2023-02-15T03:53:07;96171.47;;;5.68;63.88
33953;BME280;20231;42.710;23.280;2023-02-15T03:55:35;96165.88;;;5.65;63.78
33953;BME280;20231;42.710;23.280;2023-02-15T03:58:01;96173.44;;;5.79;63.35
33953;BME280;20231;42.710;23.280;2023-02-15T04:00:57;96173.56;;;5.84;63.35
33953;BME280;20231;42.710;23.280;2023-02-15T04:03:45;96174.84;;;5.75;63.23
33953;BME280;20231;42.710;23.280;2023-02-15T04:06:13;96165.00;;;5.77;63.19
33953;BME280;20231;42.710;23.280;2023-02-15T04:08:39;96171.38;;;5.81;63.43
33953;BME280;20231;42.710;23.280;2023-02-15T04:11:22;96190.66;;;5.87;63.10
33953;BME280;20231;42.710;23.280;2023-02-15T04:13:48;96183.22;;;5.84;63.21
33953;BME280;20231;42.710;23.280;2023-02-15T04:16:21;96179.59;;;5.85;62.94
33953;BME280;20231;42.710;23.280;2023-02-15T04:18:47;96198.44;;;5.93;63.12
33953;BME280;20231;42.710;23.280;2023-02-15T04:21:31;96200.03;;;5.94;63.03
33953;BME280;20231;42.710;23.280;2023-02-15T04:24:16;96201.41;;;5.97;62.99
33953;BME280;20231;42.710;23.280;2023-02-15T04:27:00;96209.28;;;5.97;63.07
33953;BME280;20231;42.710;23.280;2023-02-15T04:29:27;96205.41;;;5.99;62.97
33953;BME280;20231;42.710;23.280;2023-02-15T04:31:54;96205.88;;;5.96;62.80
33953;BME280;20231;42.710;23.280;2023-02-15T04:34:20;96214.31;;;5.98;63.31
33953;BME280;20231;42.710;23.280;2023-02-15T04:36:45;96207.47;;;5.97;62.92
33953;BME280;20231;42.710;23.280;2023-02-15T04:39:13;96213.13;;;5.94;63.17
33953;BME280;20231;42.710;23.280;2023-02-15T04:41:39;96200.31;;;5.86;63.03
33953;BME280;20231;42.710;23.280;2023-02-15T04:44:05;96208.72;;;5.95;63.34
33953;BME280;20231;42.710;23.280;2023-02-15T04:46:31;96198.16;;;5.83;62.85
33953;BME280;20231;42.710;23.280;2023-02-15T04:48:56;96207.75;;;5.89;63.22
33953;BME280;20231;42.710;23.280;2023-02-15T04:51:22;96211.88;;;5.97;63.14
33953;BME280;20231;42.710;23.280;2023-02-15T04:53:47;96207.28;;;5.92;63.02
33953;BME280;20231;42.710;23.280;2023-02-15T04:56:13;96233.16;;;6.07;63.08
33953;BME280;20231;42.710;23.280;2023-02-15T04:58:38;96216.25;;;6.03;63.18
33953;BME280;20231;42.710;23.280;2023-02-15T05:01:09;96213.75;;;5.72;63.54
33953;BME280;20231;42.710;23.280;2023-02-15T05:03:35;96223.88;;;5.86;63.50
33953;BME280;20231;42.710;23.280;2023-02-15T05:06:01;96230.03;;;5.98;63.22
33953;BME280;20231;42.710;23.280;2023-02-15T05:08:26;96226.44;;;5.93;63.16
33953;BME280;20231;42.710;23.280;2023-02-15T05:10:51;96223.47;;;5.89;63.13
33953;BME280;20231;42.710;23.280;2023-02-15T05:13:17;96235.19;;;5.87;63.39
33953;BME280;20231;42.710;23.280;2023-02-15T05:15:47;96239.03;;;5.84;63.66
33953;BME280;20231;42.710;23.280;2023-02-15T05:18:13;96234.38;;;5.86;63.50
33953;BME280;20231;42.710;23.280;2023-02-15T05:20:39;96234.00;;;5.83;63.74
33953;BME280;20231;42.710;23.280;2023-02-15T05:23:04;96240.19;;;5.88;63.40
33953;BME280;20231;42.710;23.280;2023-02-15T05:25:29;96239.78;;;5.91;63.24
33953;BME280;20231;42.710;23.280;2023-02-15T05:28:13;96248.94;;;6.00;63.19
33953;BME280;20231;42.710;23.280;2023-02-15T05:33:34;96258.66;;;5.93;63.19
33953;BME280;20231;42.710;23.280;2023-02-15T05:36:00;96249.81;;;5.94;63.17
33953;BME280;20231;42.710;23.280;2023-02-15T05:38:26;96255.50;;;5.91;63.56
33953;BME280;20231;42.710;23.280;2023-02-15T05:40:51;96253.78;;;5.97;63.42
33953;BME280;20231;42.710;23.280;2023-02-15T05:43:17;96248.94;;;6.00;63.04
33953;BME280;20231;42.710;23.280;2023-02-15T05:45:46;96259.16;;;6.55;79.50
33953;BME280;20231;42.710;23.280;2023-02-15T05:48:12;96260.03;;;6.49;67.56
33953;BME280;20231;42.710;23.280;2023-02-15T05:50:37;96248.34;;;6.34;63.67
33953;BME280;20231;42.710;23.280;2023-02-15T05:53:03;96265.81;;;6.40;62.76
33953;BME280;20231;42.710;23.280;2023-02-15T05:55:28;96262.81;;;6.37;62.50
33953;BME280;20231;42.710;23.280;2023-02-15T05:57:54;96253.22;;;6.31;62.38
33953;BME280;20231;42.710;23.280;2023-02-15T06:00:19;96276.16;;;6.35;62.60
33953;BME280;20231;42.710;23.280;2023-02-15T06:02:45;96262.31;;;6.28;62.51
33953;BME280;20231;42.710;23.280;2023-02-15T06:05:10;96266.38;;;6.24;62.30
33953;BME280;20231;42.710;23.280;2023-02-15T06:07:36;96268.81;;;6.26;62.27
33953;BME280;20231;42.710;23.280;2023-02-15T06:10:01;96263.63;;;6.19;62.33
33953;BME280;20231;42.710;23.280;2023-02-15T06:12:27;96255.16;;;6.17;62.43
33953;BME280;20231;42.710;23.280;2023-02-15T06:14:52;96266.25;;;6.19;62.48
33953;BME280;20231;42.710;23.280;2023-02-15T06:17:17;96262.84;;;6.19;62.57
33953;BME280;20231;42.710;23.280;2023-02-15T06:19:43;96262.09;;;6.12;62.31
33953;BME280;20231;42.710;23.280;2023-02-15T06:22:08;96271.13;;;6.16;62.31
33953;BME280;20231;42.710;23.280;2023-02-15T06:24:34;96273.75;;;6.16;62.29
33953;BME280;20231;42.710;23.280;2023-02-15T06:26:59;96275.56;;;6.15;62.46
33953;BME280;20231;42.710;23.280;2023-02-15T06:29:25;96282.91;;;5.89;63.00
33953;BME280;20231;42.710;23.280;2023-02-15T06:31:50;96254.09;;;5.89;63.20
33953;BME280;20231;42.710;23.280;2023-02-15T06:34:15;96262.97;;;5.88;63.40
33953;BME280;20231;42.710;23.280;2023-02-15T06:36:41;96221.78;;;5.77;63.26
33953;BME280;20231;42.710;23.280;2023-02-15T06:39:06;96276.50;;;6.03;63.05
33953;BME280;20231;42.710;23.280;2023-02-15T06:41:32;96265.75;;;5.93;63.19
33953;BME280;20231;42.710;23.280;2023-02-15T06:43:57;96258.25;;;5.96;63.09
33953;BME280;20231;42.710;23.280;2023-02-15T06:46:23;96265.00;;;6.04;63.14
33953;BME280;20231;42.710;23.280;2023-02-15T06:48:48;96268.22;;;6.06;62.99
33953;BME280;20231;42.710;23.280;2023-02-15T06:51:13;96260.88;;;6.14;62.66
33953;BME280;20231;42.710;23.280;2023-02-15T06:53:39;96248.19;;;6.11;62.32
33953;BME280;20231;42.710;23.280;2023-02-15T06:56:07;96280.16;;;6.20;62.18
33953;BME280;20231;42.710;23.280;2023-02-15T06:58:37;96253.78;;;5.97;62.55
33953;BME280;20231;42.710;23.280;2023-02-15T07:01:03;96283.56;;;6.20;62.46
33953;BME280;20231;42.710;23.280;2023-02-15T07:03:30;96272.44;;;6.07;62.13
33953;BME280;20231;42.710;23.280;2023-02-15T07:05:57;96278.47;;;6.25;62.03
33953;BME280;20231;42.710;23.280;2023-02-15T07:08:23;96263.72;;;6.13;61.86
33953;BME280;20231;42.710;23.280;2023-02-15T07:10:49;96282.47;;;6.28;61.72
33953;BME280;20231;42.710;23.280;2023-02-15T07:13:15;96282.63;;;6.33;61.61
33953;BME280;20231;42.710;23.280;2023-02-15T07:15:41;96279.66;;;6.29;61.48
33953;BME280;20231;42.710;23.280;2023-02-15T07:18:06;96287.06;;;6.32;61.26
33953;BME280;20231;42.710;23.280;2023-02-15T07:20:31;96290.69;;;6.31;61.28
33953;BME280;20231;42.710;23.280;2023-02-15T07:22:59;96266.69;;;6.16;61.18
33953;BME280;20231;42.710;23.280;2023-02-15T07:25:25;96291.72;;;6.30;61.33
33953;BME280;20231;42.710;23.280;2023-02-15T07:27:56;96291.81;;;6.24;61.09
33953;BME280;20231;42.710;23.280;2023-02-15T07:30:22;96284.22;;;6.16;61.19
33953;BME280;20231;42.710;23.280;2023-02-15T07:32:47;96263.25;;;6.16;61.13
33953;BME280;20231;42.710;23.280;2023-02-15T07:35:32;96269.81;;;6.25;60.80
33953;BME280;20231;42.710;23.280;2023-02-15T07:37:57;96280.34;;;6.36;60.69
33953;BME280;20231;42.710;23.280;2023-02-15T07:40:23;96233.81;;;6.02;60.80
33953;BME280;20231;42.710;23.280;2023-02-15T07:42:49;96268.22;;;6.06;61.35
33953;BME280;20231;42.710;23.280;2023-02-15T07:45:14;96266.53;;;6.11;61.20
33953;BME280;20231;42.710;23.280;2023-02-15T07:47:39;96250.38;;;5.96;61.56
33953;BME280;20231;42.710;23.280;2023-02-15T07:50:05;96263.41;;;6.21;61.23
33953;BME280;20231;42.710;23.280;2023-02-15T07:52:31;96274.25;;;6.06;61.82
33953;BME280;20231;42.710;23.280;2023-02-15T07:54:56;96273.81;;;6.09;61.92
33953;BME280;20231;42.710;23.280;2023-02-15T07:57:21;96260.41;;;6.17;61.47
33953;BME280;20231;42.710;23.280;2023-02-15T07:59:47;96250.81;;;6.11;61.74
33953;BME280;20231;42.710;23.280;2023-02-15T08:02:12;96252.06;;;5.91;62.11
33953;BME280;20231;42.710;23.280;2023-02-15T08:04:37;96262.09;;;6.12;62.31
33953;BME280;20231;42.710;23.280;2023-02-15T08:07:04;96268.94;;;6.13;61.74
33953;BME280;20231;42.710;23.280;2023-02-15T08:09:30;96262.03;;;6.18;61.33
33953;BME280;20231;42.710;23.280;2023-02-15T08:11:55;96258.81;;;5.80;62.01
33953;BME280;20231;42.710;23.280;2023-02-15T08:14:21;96253.66;;;5.25;63.66
33953;BME280;20231;42.710;23.280;2023-02-15T08:19:29;96274.47;;;5.87;62.37
33953;BME280;20231;42.710;23.280;2023-02-15T08:22:00;96265.09;;;5.97;61.85
33953;BME280;20231;42.710;23.280;2023-02-15T08:24:28;96276.72;;;5.83;62.55
33953;BME280;20231;42.710;23.280;2023-02-15T08:26:54;96271.22;;;6.09;61.96
33953;BME280;20231;42.710;23.280;2023-02-15T08:29:26;96253.00;;;5.96;61.31
33953;BME280;20231;42.710;23.280;2023-02-15T08:31:57;96276.69;;;5.59;62.65
33953;BME280;20231;42.710;23.280;2023-02-15T08:34:28;96282.53;;;5.85;62.26
33953;BME280;20231;42.710;23.280;2023-02-15T08:36:54;96265.81;;;5.62;62.44
33953;BME280;20231;42.710;23.280;2023-02-15T08:39:19;96271.25;;;6.03;61.61
33953;BME280;20231;42.710;23.280;2023-02-15T08:41:46;96274.84;;;5.17;63.29
33953;BME280;20231;42.710;23.280;2023-02-15T08:44:12;96269.66;;;5.11;63.63
33953;BME280;20231;42.710;23.280;2023-02-15T08:46:40;96277.59;;;5.71;62.62
33953;BME280;20231;42.710;23.280;2023-02-15T08:49:06;96269.72;;;5.77;61.32
33953;BME280;20231;42.710;23.280;2023-02-15T08:51:34;96272.09;;;6.03;61.00
33953;BME280;20231;42.710;23.280;2023-02-15T08:54:02;96280.38;;;6.18;60.75
33953;BME280;20231;42.710;23.280;2023-02-15T08:56:29;96280.44;;;6.30;59.57
33953;BME280;20231;42.710;23.280;2023-02-15T08:58:56;96271.34;;;6.32;59.67
33953;BME280;20231;42.710;23.280;2023-02-15T09:01:26;96274.69;;;6.39;59.91
33953;BME280;20231;42.710;23.280;2023-02-15T09:03:56;96281.66;;;6.45;58.62
33953;BME280;20231;42.710;23.280;2023-02-15T09:06:23;96280.44;;;6.47;58.87
33953;BME280;20231;42.710;23.280;2023-02-15T09:08:49;96270.31;;;6.51;58.77
33953;BME280;20231;42.710;23.280;2023-02-15T09:13:47;96281.34;;;5.81;60.33
33953;BME280;20231;42.710;23.280;2023-02-15T09:16:13;96276.94;;;6.00;60.18
33953;BME280;20231;42.710;23.280;2023-02-15T09:18:39;96285.75;;;6.05;60.22
33953;BME280;20231;42.710;23.280;2023-02-15T09:21:18;96269.50;;;6.33;59.37
33953;BME280;20231;42.710;23.280;2023-02-15T09:23:46;96284.94;;;6.40;59.31
33953;BME280;20231;42.710;23.280;2023-02-15T09:26:17;96287.78;;;6.39;59.02
33953;BME280;20231;42.710;23.280;2023-02-15T09:28:43;96287.72;;;6.28;59.07
33953;BME280;20231;42.710;23.280;2023-02-15T09:31:20;96270.06;;;6.23;58.79
33953;BME280;20231;42.710;23.280;2023-02-15T09:33:47;96285.16;;;6.57;58.52
33953;BME280;20231;42.710;23.280;2023-02-15T09:38:47;96280.66;;;6.46;58.56
33953;BME280;20231;42.710;23.280;2023-02-15T09:41:33;96289.75;;;6.61;58.29
33953;BME280;20231;42.710;23.280;2023-02-15T09:47:01;96298.06;;;6.40;57.82
33953;BME280;20231;42.710;23.280;2023-02-15T09:58:50;96275.31;;;6.52;58.45
33953;BME280;20231;42.710;23.280;2023-02-15T10:02:09;96271.16;;;6.63;58.28
33953;BME280;20231;42.710;23.280;2023-02-15T10:09:48;96270.84;;;7.00;56.95
33953;BME280;20231;42.710;23.280;2023-02-15T10:29:00;96268.41;;;6.87;56.41
33953;BME280;20231;42.710;23.280;2023-02-15T10:31:40;96262.00;;;6.83;56.52
33953;BME280;20231;42.710;23.280;2023-02-15T10:34:19;96261.63;;;6.68;57.30
33953;BME280;20231;42.710;23.280;2023-02-15T10:50:53;96233.44;;;7.05;56.85
33953;BME280;20231;42.710;23.280;2023-02-15T10:56:16;96247.25;;;7.11;56.19
33953;BME280;20231;42.710;23.280;2023-02-15T10:59:11;96234.69;;;7.02;55.59
33953;BME280;20231;42.710;23.280;2023-02-15T11:04:30;96229.91;;;6.99;55.51
33953;BME280;20231;42.710;23.280;2023-02-15T11:07:02;96233.84;;;7.31;55.51
33953;BME280;20231;42.710;23.280;2023-02-15T11:09:41;96219.25;;;7.46;56.96
33953;BME280;20231;42.710;23.280;2023-02-15T11:12:11;96228.25;;;7.73;55.72
33953;BME280;20231;42.710;23.280;2023-02-15T11:14:55;96216.94;;;7.27;55.38
33953;BME280;20231;42.710;23.280;2023-02-15T11:17:30;96221.56;;;6.91;56.13
33953;BME280;20231;42.710;23.280;2023-02-15T11:20:15;96224.94;;;7.43;56.01
33953;BME280;20231;42.710;23.280;2023-02-15T11:22:41;96206.22;;;7.28;55.54
33953;BME280;20231;42.710;23.280;2023-02-15T11:25:36;96209.03;;;7.04;55.92
33953;BME280;20231;42.710;23.280;2023-02-15T11:28:04;96226.91;;;6.96;56.54
33953;BME280;20231;42.710;23.280;2023-02-15T11:30:44;96215.94;;;7.39;55.59
33953;BME280;20231;42.710;23.280;2023-02-15T11:33:27;96219.47;;;7.68;54.36
33953;BME280;20231;42.710;23.280;2023-02-15T11:36:00;96205.63;;;7.72;54.26
33953;BME280;20231;42.710;23.280;2023-02-15T11:38:30;96197.09;;;7.65;54.28
33953;BME280;20231;42.710;23.280;2023-02-15T11:41:03;96202.31;;;7.88;53.40
33953;BME280;20231;42.710;23.280;2023-02-15T11:46:20;96200.13;;;8.08;52.58
33953;BME280;20231;42.710;23.280;2023-02-15T11:48:47;96217.34;;;8.04;52.46
33953;BME280;20231;42.710;23.280;2023-02-15T11:51:16;96206.97;;;8.09;52.88
33953;BME280;20231;42.710;23.280;2023-02-15T11:53:42;96214.97;;;8.14;52.34
33953;BME280;20231;42.710;23.280;2023-02-15T11:56:25;96197.63;;;7.90;52.31
33953;BME280;20231;42.710;23.280;2023-02-15T11:58:55;96198.34;;;7.63;53.32
33953;BME280;20231;42.710;23.280;2023-02-15T12:01:45;96194.63;;;8.09;52.34
33953;BME280;20231;42.710;23.280;2023-02-15T12:07:09;96198.75;;;8.05;52.40
33953;BME280;20231;42.710;23.280;2023-02-15T12:09:51;96192.44;;;8.06;52.58
33953;BME280;20231;42.710;23.280;2023-02-15T12:12:30;96169.63;;;7.95;52.42
33953;BME280;20231;42.710;23.280;2023-02-15T12:14:59;96156.38;;;8.02;52.63
33953;BME280;20231;42.710;23.280;2023-02-15T12:17:52;96177.44;;;8.30;52.37
33953;BME280;20231;42.710;23.280;2023-02-15T12:22:53;96169.78;;;8.28;52.04
33953;BME280;20231;42.710;23.280;2023-02-15T12:27:49;96157.50;;;8.17;52.08
33953;BME280;20231;42.710;23.280;2023-02-15T12:30:50;96160.13;;;8.06;52.60
33953;BME280;20231;42.710;23.280;2023-02-15T12:33:31;96158.88;;;7.97;52.46
33953;BME280;20231;42.710;23.280;2023-02-15T12:37:07;96155.94;;;8.33;51.66
33953;BME280;20231;42.710;23.280;2023-02-15T12:39:19;96147.66;;;8.13;51.69
33953;BME280;20231;42.710;23.280;2023-02-15T12:41:56;96153.28;;;8.60;51.34
33953;BME280;20231;42.710;23.280;2023-02-15T12:44:27;96140.03;;;8.83;50.33
33953;BME280;20231;42.710;23.280;2023-02-15T12:47:02;96130.41;;;8.45;50.98
33953;BME280;20231;42.710;23.280;2023-02-15T12:49:30;96125.59;;;8.42;50.67
33953;BME280;20231;42.710;23.280;2023-02-15T12:52:02;96114.47;;;8.51;50.74
33953;BME280;20231;42.710;23.280;2023-02-15T12:54:42;96127.63;;;8.67;50.03
33953;BME280;20231;42.710;23.280;2023-02-15T12:59:56;96111.88;;;8.84;49.41
33953;BME280;20231;42.710;23.280;2023-02-15T13:02:28;96108.34;;;8.78;49.37
33953;BME280;20231;42.710;23.280;2023-02-15T13:04:56;96119.59;;;9.07;49.04
33953;BME280;20231;42.710;23.280;2023-02-15T13:07:24;96112.59;;;9.12;49.26
33953;BME280;20231;42.710;23.280;2023-02-15T13:09:50;96118.56;;;9.24;49.07
33953;BME280;20231;42.710;23.280;2023-02-15T13:12:28;96110.59;;;9.03;48.70
33953;BME280;20231;42.710;23.280;2023-02-15T13:14:56;96107.84;;;9.30;48.09
33953;BME280;20231;42.710;23.280;2023-02-15T13:17:26;96110.41;;;9.25;48.17
33953;BME280;20231;42.710;23.280;2023-02-15T13:19:57;96114.50;;;8.84;49.14
33953;BME280;20231;42.710;23.280;2023-02-15T13:22:33;96114.97;;;8.97;49.32
33953;BME280;20231;42.710;23.280;2023-02-15T13:25:10;96119.13;;;9.10;48.98
33953;BME280;20231;42.710;23.280;2023-02-15T13:27:39;96100.50;;;9.32;48.66
33953;BME280;20231;42.710;23.280;2023-02-15T13:30:30;96109.63;;;9.25;48.72
33953;BME280;20231;42.710;23.280;2023-02-15T13:33:04;96109.97;;;9.50;48.08
33953;BME280;20231;42.710;23.280;2023-02-15T13:35:41;96126.97;;;9.80;48.19
33953;BME280;20231;42.710;23.280;2023-02-15T13:38:43;96118.06;;;9.65;48.15
33953;BME280;20231;42.710;23.280;2023-02-15T13:41:16;96125.44;;;9.63;47.98
33953;BME280;20231;42.710;23.280;2023-02-15T13:44:04;96124.84;;;9.77;47.75
33953;BME280;20231;42.710;23.280;2023-02-15T13:49:48;96139.13;;;9.43;49.00
33953;BME280;20231;42.710;23.280;2023-02-15T13:52:23;96134.41;;;9.45;48.80
33953;BME280;20231;42.710;23.280;2023-02-15T14:05:45;96142.22;;;8.31;51.79
33953;BME280;20231;42.710;23.280;2023-02-15T14:08:43;96139.75;;;8.68;51.14
33953;BME280;20231;42.710;23.280;2023-02-15T14:20:01;96154.56;;;8.86;50.08
33953;BME280;20231;42.710;23.280;2023-02-15T14:22:36;96160.22;;;9.11;49.96
33953;BME280;20231;42.710;23.280;2023-02-15T14:25:23;96148.81;;;9.05;50.11
33953;BME280;20231;42.710;23.280;2023-02-15T14:28:17;96151.13;;;9.18;49.91
33953;BME280;20231;42.710;23.280;2023-02-15T14:30:44;96156.31;;;9.13;49.51
33953;BME280;20231;42.710;23.280;2023-02-15T14:35:55;96159.25;;;8.56;51.18
33953;BME280;20231;42.710;23.280;2023-02-15T14:38:59;96164.66;;;8.77;50.88
33953;BME280;20231;42.710;23.280;2023-02-15T14:41:37;96152.88;;;9.13;50.20
33953;BME280;20231;42.710;23.280;2023-02-15T14:46:58;96148.94;;;9.15;50.04
33953;BME280;20231;42.710;23.280;2023-02-15T14:49:30;96150.81;;;9.15;49.88
33953;BME280;20231;42.710;23.280;2023-02-15T14:52:03;96162.19;;;8.87;50.40
33953;BME280;20231;42.710;23.280;2023-02-15T14:59:25;96153.25;;;9.37;48.92
33953;BME280;20231;42.710;23.280;2023-02-15T15:01:59;96150.59;;;9.54;48.63
33953;BME280;20231;42.710;23.280;2023-02-15T15:04:57;96155.94;;;9.59;48.37
33953;BME280;20231;42.710;23.280;2023-02-15T15:07:35;96152.63;;;9.68;48.35
33953;BME280;20231;42.710;23.280;2023-02-15T15:12:58;96145.94;;;9.77;47.70
33953;BME280;20231;42.710;23.280;2023-02-15T15:18:06;96145.06;;;9.72;47.62
33953;BME280;20231;42.710;23.280;2023-02-15T15:20:49;96154.09;;;9.76;47.60
33953;BME280;20231;42.710;23.280;2023-02-15T15:50:17;96171.88;;;9.15;49.44
33953;BME280;20231;42.710;23.280;2023-02-15T15:52:52;96157.66;;;9.16;49.28
33953;BME280;20231;42.710;23.280;2023-02-15T15:55:23;96167.25;;;9.22;49.20
33953;BME280;20231;42.710;23.280;2023-02-15T15:57:56;96169.41;;;9.08;49.59
33953;BME280;20231;42.710;23.280;2023-02-15T16:00:35;96166.91;;;9.02;49.93
33953;BME280;20231;42.710;23.280;2023-02-15T16:03:04;96173.91;;;8.96;49.92
33953;BME280;20231;42.710;23.280;2023-02-15T16:05:37;96175.28;;;8.82;50.49